Daylight, Indiana
Current Conditions -  °F | °C
As of 3:54 AM on Sunday 25 Jan 2015 (Local Time) from KEVV Reporting Station
Clear Clear  
Wind Chill: 40°   Ceiling: Unl
Heat Index: 44°   Visibility: 10mi
Dew Point: 31°   Wind: 8mph
Humidity: 60%   Direction: 210°SSW
Pressure: 29.71"   Gusts: NA
Location:  38.1195°N, 87.5368°W
Report Text: KEVV 250954Z AUTO 21007KT 10SM CLR 07/M01 A2971 RMK AO2 SLP062 T00671006
Loading
Personal Weather Stations






























Interactive Weather Map New forecast layout! Learn more

10-Day Weather Forecast

Advertisements
Track Severe Weather on mobile